sensor_id;sensor_type;location;lat;lon;timestamp;pressure;altitude;pressure_sealevel;temperature;humidity
42105;BME280;61464;51.472;5.712;2023-02-04T00:00:09;102990.03;;;6.87;100.00
42105;BME280;61464;51.472;5.712;2023-02-04T00:06:35;102989.59;;;6.79;100.00
42105;BME280;61464;51.472;5.712;2023-02-04T00:09:34;102986.25;;;6.77;100.00
42105;BME280;61464;51.472;5.712;2023-02-04T00:12:47;102994.75;;;6.79;100.00
42105;BME280;61464;51.472;5.712;2023-02-04T00:15:42;102976.91;;;6.74;100.00
42105;BME280;61464;51.472;5.712;2023-02-04T00:18:10;102977.75;;;6.75;100.00
42105;BME280;61464;51.472;5.712;2023-02-04T00:20:40;102981.31;;;6.72;100.00
42105;BME280;61464;51.472;5.712;2023-02-04T00:23:55;102980.56;;;6.70;100.00
42105;BME280;61464;51.472;5.712;2023-02-04T00:26:21;102990.13;;;6.68;100.00
42105;BME280;61464;51.472;5.712;2023-02-04T00:28:47;102990.97;;;6.69;100.00
42105;BME280;61464;51.472;5.712;2023-02-04T00:31:12;102980.78;;;6.65;100.00
42105;BME280;61464;51.472;5.712;2023-02-04T00:33:40;102986.03;;;6.64;100.00
42105;BME280;61464;51.472;5.712;2023-02-04T00:36:32;102986.28;;;6.59;100.00
42105;BME280;61464;51.472;5.712;2023-02-04T00:39:00;102979.53;;;6.57;100.00
42105;BME280;61464;51.472;5.712;2023-02-04T00:41:25;102984.81;;;6.54;100.00
42105;BME280;61464;51.472;5.712;2023-02-04T00:44:18;102983.94;;;6.55;100.00
42105;BME280;61464;51.472;5.712;2023-02-04T00:46:51;102991.59;;;6.56;100.00
42105;BME280;61464;51.472;5.712;2023-02-04T00:49:44;102994.25;;;6.55;100.00
42105;BME280;61464;51.472;5.712;2023-02-04T00:52:35;102998.47;;;6.56;100.00
42105;BME280;61464;51.472;5.712;2023-02-04T00:55:02;103011.94;;;6.62;100.00
42105;BME280;61464;51.472;5.712;2023-02-04T00:57:39;103001.06;;;6.56;100.00
42105;BME280;61464;51.472;5.712;2023-02-04T01:00:06;102996.06;;;6.53;100.00
42105;BME280;61464;51.472;5.712;2023-02-04T01:02:32;102994.50;;;6.50;100.00
42105;BME280;61464;51.472;5.712;2023-02-04T01:04:58;102991.06;;;6.50;100.00
42105;BME280;61464;51.472;5.712;2023-02-04T01:07:24;103001.38;;;6.50;100.00
42105;BME280;61464;51.472;5.712;2023-02-04T01:09:52;102995.38;;;6.49;100.00
42105;BME280;61464;51.472;5.712;2023-02-04T01:12:18;102992.03;;;6.47;100.00
42105;BME280;61464;51.472;5.712;2023-02-04T01:14:47;103000.53;;;6.49;100.00
42105;BME280;61464;51.472;5.712;2023-02-04T01:17:19;102995.69;;;6.43;100.00
42105;BME280;61464;51.472;5.712;2023-02-04T01:20:06;103005.31;;;6.39;100.00
42105;BME280;61464;51.472;5.712;2023-02-04T01:22:32;103014.97;;;6.36;100.00
42105;BME280;61464;51.472;5.712;2023-02-04T01:25:13;103016.25;;;6.27;100.00
42105;BME280;61464;51.472;5.712;2023-02-04T01:27:53;103013.19;;;6.19;100.00
42105;BME280;61464;51.472;5.712;2023-02-04T01:30:21;103015.25;;;6.12;100.00
42105;BME280;61464;51.472;5.712;2023-02-04T01:33:01;103025.09;;;6.04;100.00
42105;BME280;61464;51.472;5.712;2023-02-04T01:35:34;103021.97;;;5.97;100.00
42105;BME280;61464;51.472;5.712;2023-02-04T01:38:00;103026.47;;;5.92;100.00
42105;BME280;61464;51.472;5.712;2023-02-04T01:40:26;103027.69;;;5.85;100.00
42105;BME280;61464;51.472;5.712;2023-02-04T01:42:52;103025.31;;;5.80;100.00
42105;BME280;61464;51.472;5.712;2023-02-04T01:45:20;103024.41;;;5.81;100.00
42105;BME280;61464;51.472;5.712;2023-02-04T01:47:46;103026.38;;;5.76;100.00
42105;BME280;61464;51.472;5.712;2023-02-04T01:50:17;103030.94;;;5.70;100.00
42105;BME280;61464;51.472;5.712;2023-02-04T01:52:45;103037.78;;;5.71;100.00
42105;BME280;61464;51.472;5.712;2023-02-04T01:55:18;103043.00;;;5.69;100.00
42105;BME280;61464;51.472;5.712;2023-02-04T01:57:45;103042.25;;;5.67;100.00
42105;BME280;61464;51.472;5.712;2023-02-04T02:00:23;103048.44;;;5.63;100.00
42105;BME280;61464;51.472;5.712;2023-02-04T02:02:54;103044.31;;;5.59;100.00
42105;BME280;61464;51.472;5.712;2023-02-04T02:05:27;103046.19;;;5.55;100.00
42105;BME280;61464;51.472;5.712;2023-02-04T02:07:57;103042.03;;;5.53;100.00
42105;BME280;61464;51.472;5.712;2023-02-04T02:10:25;103045.59;;;5.50;100.00
42105;BME280;61464;51.472;5.712;2023-02-04T02:12:53;103053.38;;;5.49;100.00
42105;BME280;61464;51.472;5.712;2023-02-04T02:15:20;103047.53;;;5.45;100.00
42105;BME280;61464;51.472;5.712;2023-02-04T02:17:48;103045.22;;;5.39;100.00
42105;BME280;61464;51.472;5.712;2023-02-04T02:20:16;103058.97;;;5.39;100.00
42105;BME280;61464;51.472;5.712;2023-02-04T02:23:13;103063.34;;;5.37;100.00
42105;BME280;61464;51.472;5.712;2023-02-04T02:25:41;103062.56;;;5.35;100.00
42105;BME280;61464;51.472;5.712;2023-02-04T02:28:12;103071.06;;;5.37;100.00
42105;BME280;61464;51.472;5.712;2023-02-04T02:30:40;103071.94;;;5.36;100.00
42105;BME280;61464;51.472;5.712;2023-02-04T02:33:11;103059.78;;;5.40;100.00
42105;BME280;61464;51.472;5.712;2023-02-04T02:35:40;103057.97;;;5.42;100.00
42105;BME280;61464;51.472;5.712;2023-02-04T02:38:11;103056.16;;;5.44;100.00
42105;BME280;61464;51.472;5.712;2023-02-04T02:40:38;103051.78;;;5.46;100.00
42105;BME280;61464;51.472;5.712;2023-02-04T02:43:04;103055.91;;;5.50;100.00
42105;BME280;61464;51.472;5.712;2023-02-04T02:45:32;103062.78;;;5.50;100.00
42105;BME280;61464;51.472;5.712;2023-02-04T02:48:00;103061.81;;;5.52;100.00
42105;BME280;61464;51.472;5.712;2023-02-04T02:50:31;103067.78;;;5.53;100.00
42105;BME280;61464;51.472;5.712;2023-02-04T02:52:58;103070.38;;;5.53;100.00
42105;BME280;61464;51.472;5.712;2023-02-04T02:55:26;103058.47;;;5.50;100.00
42105;BME280;61464;51.472;5.712;2023-02-04T02:57:54;103065.44;;;5.48;100.00
42105;BME280;61464;51.472;5.712;2023-02-04T03:00:27;103063.94;;;5.42;100.00
42105;BME280;61464;51.472;5.712;2023-02-04T03:03:03;103076.06;;;5.40;100.00
42105;BME280;61464;51.472;5.712;2023-02-04T03:05:37;103077.16;;;5.35;100.00
42105;BME280;61464;51.472;5.712;2023-02-04T03:08:05;103075.50;;;5.34;100.00
42105;BME280;61464;51.472;5.712;2023-02-04T03:10:32;103071.25;;;5.33;100.00
42105;BME280;61464;51.472;5.712;2023-02-04T03:12:59;103075.56;;;5.32;100.00
42105;BME280;61464;51.472;5.712;2023-02-04T03:15:25;103075.63;;;5.31;100.00
42105;BME280;61464;51.472;5.712;2023-02-04T03:17:51;103079.25;;;5.27;100.00
42105;BME280;61464;51.472;5.712;2023-02-04T03:20:26;103081.25;;;5.20;100.00
42105;BME280;61464;51.472;5.712;2023-02-04T03:22:53;103083.13;;;5.16;100.00
42105;BME280;61464;51.472;5.712;2023-02-04T03:25:20;103084.91;;;5.14;100.00
42105;BME280;61464;51.472;5.712;2023-02-04T03:27:50;103085.78;;;5.15;100.00
42105;BME280;61464;51.472;5.712;2023-02-04T03:30:19;103079.75;;;5.14;100.00
42105;BME280;61464;51.472;5.712;2023-02-04T03:32:45;103079.09;;;5.11;100.00
42105;BME280;61464;51.472;5.712;2023-02-04T03:35:10;103086.03;;;5.09;100.00
42105;BME280;61464;51.472;5.712;2023-02-04T03:37:36;103083.38;;;5.10;100.00
42105;BME280;61464;51.472;5.712;2023-02-04T03:40:02;103083.13;;;5.16;100.00
42105;BME280;61464;51.472;5.712;2023-02-04T03:42:29;103086.28;;;5.23;100.00
42105;BME280;61464;51.472;5.712;2023-02-04T03:44:55;103093.03;;;5.26;100.00
42105;BME280;61464;51.472;5.712;2023-02-04T03:47:20;103087.72;;;5.29;100.00
42105;BME280;61464;51.472;5.712;2023-02-04T03:49:46;103091.22;;;5.28;100.00
42105;BME280;61464;51.472;5.712;2023-02-04T03:52:13;103087.69;;;5.30;100.00
42105;BME280;61464;51.472;5.712;2023-02-04T03:54:39;103092.72;;;5.33;100.00
42105;BME280;61464;51.472;5.712;2023-02-04T03:57:05;103089.97;;;5.36;100.00
42105;BME280;61464;51.472;5.712;2023-02-04T03:59:31;103098.41;;;5.40;100.00
42105;BME280;61464;51.472;5.712;2023-02-04T04:01:57;103102.53;;;5.44;100.00
42105;BME280;61464;51.472;5.712;2023-02-04T04:04:23;103100.00;;;5.42;100.00
42105;BME280;61464;51.472;5.712;2023-02-04T04:06:48;103099.97;;;5.44;100.00
42105;BME280;61464;51.472;5.712;2023-02-04T04:09:14;103100.72;;;5.46;100.00
42105;BME280;61464;51.472;5.712;2023-02-04T04:11:40;103095.69;;;5.43;100.00
42105;BME280;61464;51.472;5.712;2023-02-04T04:14:06;103093.22;;;5.41;100.00
42105;BME280;61464;51.472;5.712;2023-02-04T04:16:32;103098.63;;;5.35;100.00
42105;BME280;61464;51.472;5.712;2023-02-04T04:18:57;103103.00;;;5.33;100.00
42105;BME280;61464;51.472;5.712;2023-02-04T04:21:23;103100.56;;;5.30;100.00
42105;BME280;61464;51.472;5.712;2023-02-04T04:23:49;103108.69;;;5.21;100.00
42105;BME280;61464;51.472;5.712;2023-02-04T04:26:15;103107.31;;;5.12;100.00
42105;BME280;61464;51.472;5.712;2023-02-04T04:28:42;103120.44;;;5.06;100.00
42105;BME280;61464;51.472;5.712;2023-02-04T04:31:08;103120.06;;;4.95;100.00
42105;BME280;61464;51.472;5.712;2023-02-04T04:33:33;103122.06;;;4.88;100.00
42105;BME280;61464;51.472;5.712;2023-02-04T04:35:59;103116.16;;;4.86;100.00
42105;BME280;61464;51.472;5.712;2023-02-04T04:38:25;103117.22;;;4.80;100.00
42105;BME280;61464;51.472;5.712;2023-02-04T04:40:51;103117.44;;;4.76;100.00
42105;BME280;61464;51.472;5.712;2023-02-04T04:43:17;103114.13;;;4.72;100.00
42105;BME280;61464;51.472;5.712;2023-02-04T04:45:42;103118.44;;;4.72;100.00
42105;BME280;61464;51.472;5.712;2023-02-04T04:48:08;103116.81;;;4.69;100.00
42105;BME280;61464;51.472;5.712;2023-02-04T04:50:34;103114.38;;;4.66;100.00
42105;BME280;61464;51.472;5.712;2023-02-04T04:53:00;103116.97;;;4.66;100.00
42105;BME280;61464;51.472;5.712;2023-02-04T04:55:26;103121.19;;;4.67;100.00
42105;BME280;61464;51.472;5.712;2023-02-04T04:57:52;103121.13;;;4.69;100.00
42105;BME280;61464;51.472;5.712;2023-02-04T05:00:19;103124.44;;;4.72;100.00
42105;BME280;61464;51.472;5.712;2023-02-04T05:02:46;103119.22;;;4.74;100.00
42105;BME280;61464;51.472;5.712;2023-02-04T05:05:12;103131.06;;;4.78;100.00
42105;BME280;61464;51.472;5.712;2023-02-04T05:07:39;103115.63;;;4.78;100.00
42105;BME280;61464;51.472;5.712;2023-02-04T05:10:05;103128.09;;;4.87;100.00
42105;BME280;61464;51.472;5.712;2023-02-04T05:12:32;103139.13;;;4.91;100.00
42105;BME280;61464;51.472;5.712;2023-02-04T05:14:58;103131.41;;;4.91;100.00
42105;BME280;61464;51.472;5.712;2023-02-04T05:17:23;103137.19;;;4.96;100.00
42105;BME280;61464;51.472;5.712;2023-02-04T05:19:49;103134.50;;;4.99;100.00
42105;BME280;61464;51.472;5.712;2023-02-04T05:22:15;103141.91;;;5.07;100.00
42105;BME280;61464;51.472;5.712;2023-02-04T05:24:41;103153.81;;;5.09;100.00
42105;BME280;61464;51.472;5.712;2023-02-04T05:27:07;103139.19;;;5.10;100.00
42105;BME280;61464;51.472;5.712;2023-02-04T05:29:32;103154.56;;;5.11;100.00
42105;BME280;61464;51.472;5.712;2023-02-04T05:31:58;103153.66;;;5.12;100.00
42105;BME280;61464;51.472;5.712;2023-02-04T05:34:24;103159.47;;;5.17;100.00
42105;BME280;61464;51.472;5.712;2023-02-04T05:36:50;103150.81;;;5.18;100.00
42105;BME280;61464;51.472;5.712;2023-02-04T05:39:16;103149.22;;;5.16;100.00
42105;BME280;61464;51.472;5.712;2023-02-04T05:41:41;103156.91;;;5.17;100.00
42105;BME280;61464;51.472;5.712;2023-02-04T05:44:07;103155.22;;;5.16;100.00
42105;BME280;61464;51.472;5.712;2023-02-04T05:46:33;103161.22;;;5.17;100.00
42105;BME280;61464;51.472;5.712;2023-02-04T05:48:59;103163.78;;;5.17;100.00
42105;BME280;61464;51.472;5.712;2023-02-04T05:51:26;103161.91;;;5.20;100.00
42105;BME280;61464;51.472;5.712;2023-02-04T05:53:52;103155.91;;;5.20;100.00
42105;BME280;61464;51.472;5.712;2023-02-04T05:56:18;103163.59;;;5.21;100.00
42105;BME280;61464;51.472;5.712;2023-02-04T05:58:44;103169.72;;;5.19;100.00
42105;BME280;61464;51.472;5.712;2023-02-04T06:01:10;103168.94;;;5.17;100.00
42105;BME280;61464;51.472;5.712;2023-02-04T06:03:36;103170.75;;;5.15;100.00
42105;BME280;61464;51.472;5.712;2023-02-04T06:06:02;103180.13;;;5.16;100.00
42105;BME280;61464;51.472;5.712;2023-02-04T06:08:28;103181.94;;;5.14;100.00
42105;BME280;61464;51.472;5.712;2023-02-04T06:10:53;103181.88;;;5.15;100.00
42105;BME280;61464;51.472;5.712;2023-02-04T06:13:19;103181.97;;;5.12;100.00
42105;BME280;61464;51.472;5.712;2023-02-04T06:15:45;103183.00;;;5.08;100.00
42105;BME280;61464;51.472;5.712;2023-02-04T06:18:11;103186.50;;;5.07;100.00
42105;BME280;61464;51.472;5.712;2023-02-04T06:20:37;103196.75;;;5.09;100.00
42105;BME280;61464;51.472;5.712;2023-02-04T06:23:02;103188.94;;;5.10;100.00
42105;BME280;61464;51.472;5.712;2023-02-04T06:25:29;103191.41;;;5.13;100.00
42105;BME280;61464;51.472;5.712;2023-02-04T06:27:54;103194.59;;;5.18;100.00
42105;BME280;61464;51.472;5.712;2023-02-04T06:30:20;103203.88;;;5.22;100.00
42105;BME280;61464;51.472;5.712;2023-02-04T06:32:46;103207.94;;;5.28;100.00
42105;BME280;61464;51.472;5.712;2023-02-04T06:35:12;103209.75;;;5.26;100.00
42105;BME280;61464;51.472;5.712;2023-02-04T06:37:39;103208.00;;;5.27;100.00
42105;BME280;61464;51.472;5.712;2023-02-04T06:40:06;103219.16;;;5.27;100.00
42105;BME280;61464;51.472;5.712;2023-02-04T06:42:35;103215.88;;;5.23;100.00
42105;BME280;61464;51.472;5.712;2023-02-04T06:45:09;103222.00;;;5.21;100.00
42105;BME280;61464;51.472;5.712;2023-02-04T06:47:50;103215.34;;;5.15;100.00
42105;BME280;61464;51.472;5.712;2023-02-04T06:50:36;103218.69;;;5.17;100.00
42105;BME280;61464;51.472;5.712;2023-02-04T06:53:25;103223.25;;;5.11;100.00
42105;BME280;61464;51.472;5.712;2023-02-04T06:56:26;103227.44;;;5.13;100.00
42105;BME280;61464;51.472;5.712;2023-02-04T06:58:54;103230.22;;;5.09;100.00
42105;BME280;61464;51.472;5.712;2023-02-04T07:01:20;103231.81;;;5.11;100.00
42105;BME280;61464;51.472;5.712;2023-02-04T07:03:46;103238.56;;;5.14;100.00
42105;BME280;61464;51.472;5.712;2023-02-04T07:06:14;103233.56;;;5.11;100.00
42105;BME280;61464;51.472;5.712;2023-02-04T07:08:40;103238.63;;;5.12;100.00
42105;BME280;61464;51.472;5.712;2023-02-04T07:11:06;103242.06;;;5.13;100.00
42105;BME280;61464;51.472;5.712;2023-02-04T07:13:32;103241.88;;;5.17;100.00
42105;BME280;61464;51.472;5.712;2023-02-04T07:15:57;103250.56;;;5.15;100.00
42105;BME280;61464;51.472;5.712;2023-02-04T07:18:23;103250.31;;;5.21;100.00
42105;BME280;61464;51.472;5.712;2023-02-04T07:20:49;103261.53;;;5.18;100.00
42105;BME280;61464;51.472;5.712;2023-02-04T07:23:15;103262.28;;;5.22;100.00
42105;BME280;61464;51.472;5.712;2023-02-04T07:25:42;103255.50;;;5.19;100.00
42105;BME280;61464;51.472;5.712;2023-02-04T07:28:08;103256.16;;;5.24;100.00
42105;BME280;61464;51.472;5.712;2023-02-04T07:30:34;103252.81;;;5.22;100.00
42105;BME280;61464;51.472;5.712;2023-02-04T07:33:00;103259.63;;;5.23;100.00
42105;BME280;61464;51.472;5.712;2023-02-04T07:35:26;103255.31;;;5.24;100.00
42105;BME280;61464;51.472;5.712;2023-02-04T07:37:51;103267.06;;;5.31;100.00
42105;BME280;61464;51.472;5.712;2023-02-04T07:40:17;103271.34;;;5.31;100.00
42105;BME280;61464;51.472;5.712;2023-02-04T07:42:43;103277.28;;;5.33;100.00
42105;BME280;61464;51.472;5.712;2023-02-04T07:45:09;103280.59;;;5.36;100.00
42105;BME280;61464;51.472;5.712;2023-02-04T07:47:35;103272.66;;;5.41;100.00
42105;BME280;61464;51.472;5.712;2023-02-04T07:50:01;103280.38;;;5.41;100.00
42105;BME280;61464;51.472;5.712;2023-02-04T07:52:27;103287.88;;;5.47;100.00
42105;BME280;61464;51.472;5.712;2023-02-04T07:54:52;103282.72;;;5.47;100.00
42105;BME280;61464;51.472;5.712;2023-02-04T07:57:19;103288.47;;;5.54;100.00
42105;BME280;61464;51.472;5.712;2023-02-04T07:59:44;103281.38;;;5.59;100.00
42105;BME280;61464;51.472;5.712;2023-02-04T08:02:11;103284.78;;;5.59;100.00
42105;BME280;61464;51.472;5.712;2023-02-04T08:04:36;103285.44;;;5.64;100.00
42105;BME280;61464;51.472;5.712;2023-02-04T08:07:03;103284.16;;;5.75;100.00
42105;BME280;61464;51.472;5.712;2023-02-04T08:09:29;103301.03;;;5.82;100.00
42105;BME280;61464;51.472;5.712;2023-02-04T08:11:54;103306.13;;;5.83;100.00
42105;BME280;61464;51.472;5.712;2023-02-04T08:14:20;103309.34;;;5.89;100.00
42105;BME280;61464;51.472;5.712;2023-02-04T08:16:46;103304.00;;;5.93;100.00
42105;BME280;61464;51.472;5.712;2023-02-04T08:19:12;103308.19;;;5.96;100.00
42105;BME280;61464;51.472;5.712;2023-02-04T08:21:44;103318.19;;;6.03;100.00
42105;BME280;61464;51.472;5.712;2023-02-04T08:24:12;103317.44;;;6.01;100.00
42105;BME280;61464;51.472;5.712;2023-02-04T08:26:39;103318.97;;;6.06;100.00
42105;BME280;61464;51.472;5.712;2023-02-04T08:29:05;103312.84;;;6.08;100.00
42105;BME280;61464;51.472;5.712;2023-02-04T08:31:31;103315.63;;;6.03;100.00
42105;BME280;61464;51.472;5.712;2023-02-04T08:33:57;103320.88;;;6.00;100.00
42105;BME280;61464;51.472;5.712;2023-02-04T08:36:23;103325.78;;;6.07;100.00
42105;BME280;61464;51.472;5.712;2023-02-04T08:38:49;103332.31;;;6.15;100.00
42105;BME280;61464;51.472;5.712;2023-02-04T08:41:15;103338.34;;;6.14;100.00
42105;BME280;61464;51.472;5.712;2023-02-04T08:43:41;103333.44;;;6.29;100.00
42105;BME280;61464;51.472;5.712;2023-02-04T08:46:06;103334.59;;;6.42;100.00
42105;BME280;61464;51.472;5.712;2023-02-04T08:48:32;103341.13;;;6.49;100.00
42105;BME280;61464;51.472;5.712;2023-02-04T08:50:58;103334.44;;;6.45;100.00
42105;BME280;61464;51.472;5.712;2023-02-04T08:53:24;103339.69;;;6.62;100.00
42105;BME280;61464;51.472;5.712;2023-02-04T08:55:50;103350.16;;;6.59;100.00
42105;BME280;61464;51.472;5.712;2023-02-04T08:58:16;103345.41;;;6.69;100.00
42105;BME280;61464;51.472;5.712;2023-02-04T09:00:42;103355.59;;;6.72;100.00
42105;BME280;61464;51.472;5.712;2023-02-04T09:03:07;103361.19;;;6.82;100.00
42105;BME280;61464;51.472;5.712;2023-02-04T09:05:33;103361.94;;;6.84;100.00
42105;BME280;61464;51.472;5.712;2023-02-04T09:07:59;103362.44;;;6.92;100.00
42105;BME280;61464;51.472;5.712;2023-02-04T09:10:25;103370.53;;;7.03;100.00
42105;BME280;61464;51.472;5.712;2023-02-04T09:12:51;103374.78;;;7.04;100.00
42105;BME280;61464;51.472;5.712;2023-02-04T09:15:22;103368.06;;;7.00;100.00
42105;BME280;61464;51.472;5.712;2023-02-04T09:17:50;103379.72;;;7.09;100.00
42105;BME280;61464;51.472;5.712;2023-02-04T09:20:18;103381.53;;;7.07;100.00
42105;BME280;61464;51.472;5.712;2023-02-04T09:22:44;103380.38;;;7.14;100.00
42105;BME280;61464;51.472;5.712;2023-02-04T09:25:10;103381.34;;;7.12;100.00
42105;BME280;61464;51.472;5.712;2023-02-04T09:27:35;103385.25;;;7.20;100.00
42105;BME280;61464;51.472;5.712;2023-02-04T09:30:01;103386.56;;;7.29;100.00
42105;BME280;61464;51.472;5.712;2023-02-04T09:32:29;103389.78;;;7.34;100.00
42105;BME280;61464;51.472;5.712;2023-02-04T09:34:55;103388.31;;;7.46;100.00
42105;BME280;61464;51.472;5.712;2023-02-04T09:37:21;103388.72;;;7.56;100.00
42105;BME280;61464;51.472;5.712;2023-02-04T09:39:48;103378.84;;;7.64;100.00
42105;BME280;61464;51.472;5.712;2023-02-04T09:42:15;103391.81;;;7.81;100.00
42105;BME280;61464;51.472;5.712;2023-02-04T09:44:41;103392.56;;;7.83;100.00
42105;BME280;61464;51.472;5.712;2023-02-04T09:47:11;103390.94;;;7.81;100.00
42105;BME280;61464;51.472;5.712;2023-02-04T09:49:42;103393.47;;;7.82;100.00
42105;BME280;61464;51.472;5.712;2023-02-04T09:52:13;103399.78;;;7.94;100.00
42105;BME280;61464;51.472;5.712;2023-02-04T09:54:41;103399.63;;;7.97;100.00
42105;BME280;61464;51.472;5.712;2023-02-04T09:57:18;103395.66;;;8.07;100.00
42105;BME280;61464;51.472;5.712;2023-02-04T09:59:45;103404.41;;;8.05;100.00
42105;BME280;61464;51.472;5.712;2023-02-04T10:02:24;103398.97;;;7.94;100.00
42105;BME280;61464;51.472;5.712;2023-02-04T10:04:54;103402.91;;;8.01;100.00
42105;BME280;61464;51.472;5.712;2023-02-04T10:07:22;103410.13;;;7.94;100.00
42105;BME280;61464;51.472;5.712;2023-02-04T10:09:51;103408.31;;;7.96;100.00
42105;BME280;61464;51.472;5.712;2023-02-04T10:12:18;103412.94;;;8.07;100.00
42105;BME280;61464;51.472;5.712;2023-02-04T10:14:44;103411.50;;;8.19;100.00
42105;BME280;61464;51.472;5.712;2023-02-04T10:17:11;103411.59;;;8.00;100.00
42105;BME280;61464;51.472;5.712;2023-02-04T10:19:41;103409.34;;;8.10;100.00
42105;BME280;61464;51.472;5.712;2023-02-04T10:22:17;103411.63;;;8.16;100.00
42105;BME280;61464;51.472;5.712;2023-02-04T10:24:43;103422.13;;;8.30;100.00
42105;BME280;61464;51.472;5.712;2023-02-04T10:27:11;103417.56;;;8.35;100.00
42105;BME280;61464;51.472;5.712;2023-02-04T10:29:37;103417.81;;;8.31;100.00
42105;BME280;61464;51.472;5.712;2023-02-04T10:32:05;103414.63;;;8.43;100.00
42105;BME280;61464;51.472;5.712;2023-02-04T10:34:38;103413.44;;;8.49;100.00
42105;BME280;61464;51.472;5.712;2023-02-04T10:37:21;103410.84;;;8.49;100.00
42105;BME280;61464;51.472;5.712;2023-02-04T10:39:47;103413.25;;;8.69;100.00
42105;BME280;61464;51.472;5.712;2023-02-04T10:42:28;103418.44;;;8.85;100.00
42105;BME280;61464;51.472;5.712;2023-02-04T10:44:55;103419.38;;;8.84;100.00
42105;BME280;61464;51.472;5.712;2023-02-04T10:47:24;103420.13;;;9.02;100.00
42105;BME280;61464;51.472;5.712;2023-02-04T10:50:13;103424.75;;;8.97;100.00
42105;BME280;61464;51.472;5.712;2023-02-04T10:52:48;103420.13;;;9.34;100.00
42105;BME280;61464;51.472;5.712;2023-02-04T10:55:18;103426.16;;;9.50;100.00
42105;BME280;61464;51.472;5.712;2023-02-04T10:57:48;103423.47;;;9.52;100.00
42105;BME280;61464;51.472;5.712;2023-02-04T11:00:23;103424.22;;;9.54;100.00
42105;BME280;61464;51.472;5.712;2023-02-04T11:03:06;103431.31;;;9.50;100.00
42105;BME280;61464;51.472;5.712;2023-02-04T11:05:34;103427.72;;;9.37;100.00
42105;BME280;61464;51.472;5.712;2023-02-04T11:08:02;103432.50;;;9.29;100.00
42105;BME280;61464;51.472;5.712;2023-02-04T11:10:32;103423.34;;;9.23;100.00
42105;BME280;61464;51.472;5.712;2023-02-04T11:13:05;103430.25;;;9.22;100.00
42105;BME280;61464;51.472;5.712;2023-02-04T11:15:49;103433.63;;;9.09;100.00
42105;BME280;61464;51.472;5.712;2023-02-04T11:20:45;103420.06;;;9.03;100.00
42105;BME280;61464;51.472;5.712;2023-02-04T11:26:10;103416.72;;;9.17;100.00
42105;BME280;61464;51.472;5.712;2023-02-04T11:34:01;103427.16;;;9.48;100.00
42105;BME280;61464;51.472;5.712;2023-02-04T11:36:27;103415.91;;;9.63;100.00
42105;BME280;61464;51.472;5.712;2023-02-04T11:38:53;103413.16;;;9.66;100.00
42105;BME280;61464;51.472;5.712;2023-02-04T11:41:28;103418.09;;;9.55;100.00
42105;BME280;61464;51.472;5.712;2023-02-04T11:43:56;103410.16;;;9.58;100.00
42105;BME280;61464;51.472;5.712;2023-02-04T11:46:25;103408.41;;;9.58;100.00
42105;BME280;61464;51.472;5.712;2023-02-04T11:48:56;103416.44;;;9.54;100.00
42105;BME280;61464;51.472;5.712;2023-02-04T11:51:31;103416.53;;;9.52;100.00
42105;BME280;61464;51.472;5.712;2023-02-04T11:53:58;103417.13;;;9.72;100.00
42105;BME280;61464;51.472;5.712;2023-02-04T11:56:28;103414.44;;;9.89;100.00
42105;BME280;61464;51.472;5.712;2023-02-04T11:58:57;103420.59;;;9.72;100.00
42105;BME280;61464;51.472;5.712;2023-02-04T12:01:30;103413.78;;;9.70;100.00
42105;BME280;61464;51.472;5.712;2023-02-04T12:03:59;103420.59;;;9.72;100.00
42105;BME280;61464;51.472;5.712;2023-02-04T12:06:30;103418.50;;;9.63;100.00
42105;BME280;61464;51.472;5.712;2023-02-04T12:09:07;103415.16;;;9.61;100.00
42105;BME280;61464;51.472;5.712;2023-02-04T12:11:34;103411.78;;;9.75;100.00
42105;BME280;61464;51.472;5.712;2023-02-04T12:14:09;103418.47;;;9.79;100.00
42105;BME280;61464;51.472;5.712;2023-02-04T12:16:48;103404.47;;;10.12;100.00
42105;BME280;61464;51.472;5.712;2023-02-04T12:19:18;103415.63;;;9.98;100.00
42105;BME280;61464;51.472;5.712;2023-02-04T12:21:44;103410.84;;;10.06;100.00
42105;BME280;61464;51.472;5.712;2023-02-04T12:24:10;103413.44;;;10.06;100.00
42105;BME280;61464;51.472;5.712;2023-02-04T12:26:36;103413.91;;;10.13;100.00
42105;BME280;61464;51.472;5.712;2023-02-04T12:29:02;103407.81;;;10.14;100.00
42105;BME280;61464;51.472;5.712;2023-02-04T12:31:28;103412.56;;;9.91;100.00
42105;BME280;61464;51.472;5.712;2023-02-04T12:33:54;103419.25;;;9.95;100.00
42105;BME280;61464;51.472;5.712;2023-02-04T12:36:21;103416.00;;;9.92;100.00
42105;BME280;61464;51.472;5.712;2023-02-04T12:38:46;103416.66;;;9.95;100.00
42105;BME280;61464;51.472;5.712;2023-02-04T12:41:12;103415.44;;;9.86;100.00
42105;BME280;61464;51.472;5.712;2023-02-04T12:43:38;103419.41;;;9.92;100.00
42105;BME280;61464;51.472;5.712;2023-02-04T12:46:04;103416.97;;;10.05;100.00
42105;BME280;61464;51.472;5.712;2023-02-04T12:48:30;103425.22;;;10.12;100.00
42105;BME280;61464;51.472;5.712;2023-02-04T12:50:56;103428.53;;;10.30;100.00
42105;BME280;61464;51.472;5.712;2023-02-04T12:53:22;103427.06;;;10.10;100.00
42105;BME280;61464;51.472;5.712;2023-02-04T12:55:48;103429.66;;;10.10;100.00
42105;BME280;61464;51.472;5.712;2023-02-04T12:58:13;103429.84;;;10.06;100.00
42105;BME280;61464;51.472;5.712;2023-02-04T13:00:39;103431.28;;;9.96;100.00
42105;BME280;61464;51.472;5.712;2023-02-04T13:03:06;103435.94;;;9.91;100.00
42105;BME280;61464;51.472;5.712;2023-02-04T13:05:32;103432.91;;;9.99;100.00
42105;BME280;61464;51.472;5.712;2023-02-04T13:08:00;103436.13;;;10.02;100.00
42105;BME280;61464;51.472;5.712;2023-02-04T13:10:27;103428.34;;;10.02;100.00
42105;BME280;61464;51.472;5.712;2023-02-04T13:12:52;103428.25;;;10.04;100.00